Meteorología y climatología de Navarra
Datos de la estación - Meteo Navarra

Estación de Urbasa GN

Altitud 886 m.


Datos desde el 09/11/2019 hasta el 10/11/2019 en horario solar
Los datos son PROVISIONALES

Anterior Página 1 de 1 Siguiente Descargar: Formato para Excel 2000 o superior   Formato csv   Formato para OpenOffice Calc
Fecha Temperatura Humedad relativa Radiación global Insolación Precipitación Vel. viento 10 m Vel. viento 10 m Dir. viento 10 m
ºC % W/m² s l/m² m/s km/h º
09/11/2019 0:00 3.0 94 0.0 0 0.1 2.4 8.8 249
09/11/2019 0:10 3.0 94 0.0 0 0.3 3.7 13.4 253
09/11/2019 0:20 3.1 95 0.0 0 0.3 3.7 13.1 263
09/11/2019 0:30 2.9 94 0.0 0 0.2 3.4 12.3 262
09/11/2019 0:40 2.6 95 0.0 0 0.2 3.1 11.0 258
09/11/2019 0:50 2.6 95 0.0 0 0.4 3.7 13.1 255
09/11/2019 1:00 2.6 95 0.0 0 0.3 3.6 12.9 261
09/11/2019 1:10 2.6 95 0.0 0 0.2 3.0 10.9 258
09/11/2019 1:20 2.6 95 0.0 0 0.1 2.8 10.2 256
09/11/2019 1:30 2.7 95 0.0 0 0.2 2.9 10.5 261
09/11/2019 1:40 2.9 95 0.0 0 0.2 2.3 8.3 267
09/11/2019 1:50 2.9 96 0.0 0 0.3 2.2 8.0 257
09/11/2019 2:00 2.9 96 0.0 0 0.1 2.8 10.2 257
09/11/2019 2:10 3.0 96 0.0 0 0.0 3.4 12.2 256
09/11/2019 2:20 3.0 96 0.0 0 0.0 2.6 9.2 258
09/11/2019 2:30 3.0 97 0.0 0 0.0 2.6 9.5 249
09/11/2019 2:40 2.9 96 0.0 0 0.0 2.6 9.5 250
09/11/2019 2:50 2.9 96 0.0 0 0.0 2.8 9.9 259
09/11/2019 3:00 3.0 96 0.0 0 0.0 3.5 12.5 260
09/11/2019 3:10 3.1 97 0.0 0 0.1 3.4 12.2 259
09/11/2019 3:20 3.0 97 0.0 0 0.1 3.3 12.0 264
09/11/2019 3:30 2.9 97 0.0 0 0.3 2.6 9.5 269
09/11/2019 3:40 3.0 98 0.0 0 0.2 3.4 12.2 263
09/11/2019 3:50 3.0 98 0.0 0 0.0 3.6 12.9 263
09/11/2019 4:00 3.1 97 0.0 0 0.0 2.6 9.3 250
09/11/2019 4:10 3.1 97 0.0 0 0.0 3.2 11.4 251
09/11/2019 4:20 3.2 97 0.0 0 0.1 2.9 10.3 260
09/11/2019 4:30 3.2 97 0.0 0 0.4 3.4 12.2 259
09/11/2019 4:40 3.1 97 0.0 0 0.2 3.3 12.0 260
09/11/2019 4:50 3.1 97 0.0 0 0.1 1.3 4.5 260
09/11/2019 5:00 3.1 97 0.0 0 0.0 1.8 6.3 273
09/11/2019 5:10 3.0 97 0.0 0 0.3 2.1 7.6 266
09/11/2019 5:20 2.9 97 0.0 0 0.2 1.8 6.4 261
09/11/2019 5:30 3.0 97 0.0 0 0.2 2.5 8.8 260
09/11/2019 5:40 3.1 97 0.0 0 0.3 2.4 8.6 262
09/11/2019 5:50 3.0 97 0.0 0 0.1 1.9 6.8 255
09/11/2019 6:00 3.0 97 0.0 0 0.2 2.3 8.4 258
09/11/2019 6:10 2.9 97 0.0 0 0.0 3.0 10.8 258
09/11/2019 6:20 3.0 98 0.0 0 0.1 3.4 12.3 257
09/11/2019 6:30 2.9 98 0.0 0 0.1 2.6 9.5 262
09/11/2019 6:40 3.0 98 0.0 0 0.0 2.7 9.6 265
09/11/2019 6:50 3.0 98 0.0 0 0.1 2.6 9.3 273
09/11/2019 7:00 3.1 98 0.0 0 0.0 1.8 6.4 265
09/11/2019 7:10 3.0 98 0.0 0 0.1 1.5 5.3 276
09/11/2019 7:20 3.0 98 0.0 0 0.0 1.9 6.7 279
09/11/2019 7:30 3.1 98 0.0 0 0.1 1.6 5.7 276
09/11/2019 7:40 3.1 98 0.0 0 0.0 1.5 5.3 271
09/11/2019 7:50 3.0 98 13.1 0 0.1 1.4 4.9 269
09/11/2019 8:00 3.1 98 24.7 0 0.0 1.8 6.5 278
09/11/2019 8:10 3.0 98 20.4 0 0.0 1.3 4.6 276
09/11/2019 8:20 3.0 98 38.4 0 0.0 1.5 5.3 261
09/11/2019 8:30 3.1 98 57.0 0 0.0 1.5 5.3 283
09/11/2019 8:40 3.3 98 91.9 0 0.0 1.2 4.4 283
09/11/2019 8:50 3.4 98 110.5 0 0.0 1.0 3.7 271
09/11/2019 9:00 3.6 98 108.7 0 0.0 1.2 4.4 261
09/11/2019 9:10 3.6 98 114.7 0 0.0 1.2 4.4 270
09/11/2019 9:20 3.8 98 150.5 0 0.0 0.9 3.1 288
09/11/2019 9:30 3.9 97 175.4 136 0.0 0.8 3.0 275
09/11/2019 9:40 4.1 96 217.0 342 0.0 1.4 5.1 277
09/11/2019 9:50 4.4 95 199.2 34 0.0 1.5 5.3 282
09/11/2019 10:00 4.4 92 188.7 0 0.0 1.8 6.6 261
09/11/2019 10:10 4.4 90 159.0 0 0.0 2.7 9.5 249
09/11/2019 10:20 4.5 89 294.9 292 0.0 2.2 7.8 247
09/11/2019 10:30 4.8 88 311.8 600 0.0 1.8 6.6 245
09/11/2019 10:40 4.9 87 228.3 152 0.0 1.5 5.4 248
09/11/2019 10:50 4.8 86 240.0 124 0.0 2.7 9.8 251
09/11/2019 11:00 5.0 86 172.5 0 0.0 1.4 5.0 233
09/11/2019 11:10 5.0 85 67.7 0 0.0 2.8 10.2 262
09/11/2019 11:20 4.5 87 76.4 0 0.2 3.9 14.0 264
09/11/2019 11:30 4.1 90 57.2 0 0.3 3.7 13.4 259
09/11/2019 11:40 3.9 91 90.3 0 0.3 2.9 10.5 261
09/11/2019 11:50 3.8 91 101.7 0 0.3 2.5 8.8 257
09/11/2019 12:00 4.0 92 167.0 0 0.1 2.0 7.2 247
09/11/2019 12:10 4.2 92 175.6 0 0.0 2.1 7.6 245
09/11/2019 12:20 4.4 92 138.3 0 0.0 2.1 7.4 258
09/11/2019 12:30 4.6 92 261.0 154 0.0 2.4 8.6 255
09/11/2019 12:40 4.9 92 464.5 586 0.0 3.5 12.7 263
09/11/2019 12:50 4.9 91 352.2 600 0.0 1.9 6.8 242
09/11/2019 13:00 5.1 92 325.3 506 0.0 1.4 5.0 242
09/11/2019 13:10 5.2 91 273.1 460 0.0 2.0 7.3 238
09/11/2019 13:20 5.3 91 287.6 442 0.0 1.6 5.9 230
09/11/2019 13:30 5.5 90 247.9 344 0.0 3.0 10.9 250
09/11/2019 13:40 5.2 91 92.9 0 0.5 1.8 6.6 246
09/11/2019 13:50 5.1 93 140.7 0 0.3 3.0 10.9 252
09/11/2019 14:00 5.1 93 233.3 312 0.0 3.3 12.0 258
09/11/2019 14:10 5.2 94 205.0 218 0.2 3.7 13.1 247
09/11/2019 14:20 5.4 94 240.9 600 0.0 3.4 12.1 252
09/11/2019 14:30 5.5 93 192.4 330 0.1 2.7 9.6 250
09/11/2019 14:40 5.5 94 137.6 0 0.0 2.5 8.8 258
09/11/2019 14:50 5.4 94 76.8 0 0.0 2.5 9.1 277
09/11/2019 15:00 5.1 94 59.8 0 0.0 2.4 8.5 270
09/11/2019 15:10 5.1 95 35.5 0 0.0 2.4 8.5 265
09/11/2019 15:20 5.1 95 23.6 0 0.0 2.4 8.5 271
09/11/2019 15:30 5.0 96 31.3 0 0.1 2.7 9.8 274
09/11/2019 15:40 5.0 96 18.1 0 0.1 2.1 7.5 283
09/11/2019 15:50 5.0 96 8.0 0 0.3 2.6 9.3 266
09/11/2019 16:00 5.0 97 1.1 0 0.3 2.7 9.9 268
09/11/2019 16:10 5.0 97 0.0 0 0.2 2.5 8.9 264
09/11/2019 16:20 5.1 97 1.0 0 0.4 2.7 9.7 266
09/11/2019 16:30 5.1 97 0.0 0 0.5 2.6 9.4 279
09/11/2019 16:40 5.1 97 0.0 0 0.4 2.4 8.7 270
09/11/2019 16:50 5.2 97 0.0 0 1.2 1.9 6.8 268
09/11/2019 17:00 5.2 97 0.0 0 0.5 1.8 6.3 276
09/11/2019 17:10 5.2 97 0.0 0 0.3 3.0 10.6 269
09/11/2019 17:20 5.3 97 0.0 0 0.3 2.3 8.1 282
09/11/2019 17:30 5.3 97 0.0 0 0.0 2.1 7.6 282
09/11/2019 17:40 5.3 97 0.0 0 0.0 2.8 10.0 268
09/11/2019 17:50 5.3 98 0.0 0 0.3 2.5 9.1 273
09/11/2019 18:00 5.4 98 0.0 0 0.2 2.3 8.4 282
09/11/2019 18:10 5.3 98 0.0 0 0.0 1.9 7.0 268
09/11/2019 18:20 5.4 98 0.0 0 0.1 1.8 6.6 281
09/11/2019 18:30 5.4 98 0.0 0 0.0 1.2 4.4 275
09/11/2019 18:40 5.4 98 0.0 0 0.0 1.2 4.4 224
09/11/2019 18:50 5.4 98 0.0 0 0.0 3.2 11.6 268
09/11/2019 19:00 5.3 96 0.0 0 0.0 3.9 14.0 257
09/11/2019 19:10 5.6 94 0.0 0 0.1 3.0 10.7 293
09/11/2019 19:20 4.6 93 0.0 0 0.2 4.0 14.3 15
09/11/2019 19:30 4.1 92 0.0 0 0.0 3.0 10.8 0
09/11/2019 19:40 3.8 93 0.0 0 0.1 2.6 9.4 355
09/11/2019 19:50 3.6 93 0.0 0 0.2 2.3 8.4 303
09/11/2019 20:00 3.4 93 0.0 0 0.1 1.8 6.4 304
09/11/2019 20:10 3.4 94 0.0 0 0.0 1.6 5.7 339
09/11/2019 20:20 3.3 95 0.0 0 0.1 1.2 4.4 2
09/11/2019 20:30 3.2 95 0.0 0 0.4 2.2 7.9 328
09/11/2019 20:40 3.0 95 0.0 0 0.8 2.6 9.2 297
09/11/2019 20:50 2.4 95 0.0 0 1.4 4.3 15.6 278
09/11/2019 21:00 1.9 95 0.0 0 0.2 1.0 3.4 225
09/11/2019 21:10 2.0 95 0.0 0 0.0 1.7 6.0 246
09/11/2019 21:20 2.0 95 0.0 0 0.0 1.5 5.4 284
09/11/2019 21:30 1.9 95 0.0 0 0.0 1.6 5.9 279
09/11/2019 21:40 2.1 95 0.0 0 0.1 1.1 3.9 187
09/11/2019 21:50 2.3 95 0.0 0 0.4 2.4 8.6 41
09/11/2019 22:00 2.4 95 0.0 0 0.1 2.0 7.3 291
09/11/2019 22:10 2.6 95 0.0 0 0.1 1.6 5.9 271
09/11/2019 22:20 2.8 95 0.0 0 0.0 2.5 8.9 267
09/11/2019 22:30 3.0 95 0.0 0 0.0 3.2 11.6 266
09/11/2019 22:40 3.0 94 0.0 0 0.0 2.5 9.1 239
09/11/2019 22:50 3.3 92 0.0 0 0.0 3.3 11.7 267
09/11/2019 23:00 3.2 92 0.0 0 0.0 3.6 13.1 281
09/11/2019 23:10 3.2 91 0.0 0 0.0 3.8 13.7 268
09/11/2019 23:20 3.1 90 0.0 0 0.0 2.3 8.2 261
09/11/2019 23:30 3.2 89 0.0 0 0.0 2.5 8.9 260
09/11/2019 23:40 3.1 90 0.0 0 0.0 2.2 8.0 284
09/11/2019 23:50 2.8 89 0.0 0 0.3 3.2 11.5 302
Anterior Página 1 de 1 Siguiente

NOTA: Tipo de datos según el color:
   - Valores diarios o 10 minutos correctos
   - Valores diarios calculados a partir de un número de datos 10 minutos menor que 144 y mayor que 120, o de un número de datos semihorarios menor que 48 y mayor que 40 (caso de las estaciones de Riegos de Navarra y del MARM)
   - Valores diez minutos estimados


Contacto        Enlaces        Aviso legal